sensor_id;sensor_type;location;lat;lon;timestamp;P1;durP1;ratioP1;P2;durP2;ratioP2
44358;SDS011;30077;52.474;13.326;2023-05-10T00:03:11;15.02;;;6.85;;
44358;SDS011;30077;52.474;13.326;2023-05-10T00:08:12;12.27;;;8.25;;
44358;SDS011;30077;52.474;13.326;2023-05-10T00:13:12;12.75;;;7.60;;
44358;SDS011;30077;52.474;13.326;2023-05-10T00:18:13;13.05;;;7.72;;
44358;SDS011;30077;52.474;13.326;2023-05-10T00:23:13;10.40;;;7.30;;
44358;SDS011;30077;52.474;13.326;2023-05-10T00:28:14;11.75;;;7.15;;
44358;SDS011;30077;52.474;13.326;2023-05-10T00:33:15;9.60;;;7.38;;
44358;SDS011;30077;52.474;13.326;2023-05-10T00:38:15;11.07;;;7.30;;
44358;SDS011;30077;52.474;13.326;2023-05-10T00:43:16;12.55;;;7.65;;
44358;SDS011;30077;52.474;13.326;2023-05-10T00:48:17;10.05;;;7.00;;
44358;SDS011;30077;52.474;13.326;2023-05-10T00:53:17;11.60;;;7.90;;
44358;SDS011;30077;52.474;13.326;2023-05-10T00:58:18;10.85;;;7.78;;
44358;SDS011;30077;52.474;13.326;2023-05-10T01:03:19;11.82;;;8.52;;
44358;SDS011;30077;52.474;13.326;2023-05-10T01:08:19;11.30;;;7.88;;
44358;SDS011;30077;52.474;13.326;2023-05-10T01:13:29;15.45;;;7.82;;
44358;SDS011;30077;52.474;13.326;2023-05-10T01:18:39;12.83;;;8.20;;
44358;SDS011;30077;52.474;13.326;2023-05-10T01:34:35;13.50;;;8.70;;
44358;SDS011;30077;52.474;13.326;2023-05-10T01:39:44;12.35;;;9.07;;
44358;SDS011;30077;52.474;13.326;2023-05-10T01:50:18;12.48;;;9.05;;
44358;SDS011;30077;52.474;13.326;2023-05-10T01:55:22;13.20;;;8.57;;
44358;SDS011;30077;52.474;13.326;2023-05-10T02:00:25;14.55;;;9.40;;
44358;SDS011;30077;52.474;13.326;2023-05-10T02:05:27;13.05;;;8.68;;
44358;SDS011;30077;52.474;13.326;2023-05-10T02:10:31;11.15;;;8.15;;
44358;SDS011;30077;52.474;13.326;2023-05-10T02:15:34;12.18;;;8.45;;
44358;SDS011;30077;52.474;13.326;2023-05-10T02:20:36;11.45;;;8.13;;
44358;SDS011;30077;52.474;13.326;2023-05-10T02:25:38;16.20;;;8.70;;
44358;SDS011;30077;52.474;13.326;2023-05-10T02:30:40;15.30;;;8.82;;
44358;SDS011;30077;52.474;13.326;2023-05-10T02:35:41;13.18;;;9.10;;
44358;SDS011;30077;52.474;13.326;2023-05-10T02:40:42;12.50;;;9.13;;
44358;SDS011;30077;52.474;13.326;2023-05-10T02:45:43;13.82;;;9.43;;
44358;SDS011;30077;52.474;13.326;2023-05-10T02:50:47;13.88;;;8.52;;
44358;SDS011;30077;52.474;13.326;2023-05-10T02:55:52;12.07;;;9.20;;
44358;SDS011;30077;52.474;13.326;2023-05-10T03:00:59;10.23;;;8.48;;
44358;SDS011;30077;52.474;13.326;2023-05-10T03:06:00;16.20;;;8.48;;
44358;SDS011;30077;52.474;13.326;2023-05-10T03:16:29;15.50;;;8.82;;
44358;SDS011;30077;52.474;13.326;2023-05-10T03:21:37;13.35;;;8.35;;
44358;SDS011;30077;52.474;13.326;2023-05-10T03:26:43;12.18;;;8.10;;
44358;SDS011;30077;52.474;13.326;2023-05-10T03:31:45;12.05;;;8.07;;
44358;SDS011;30077;52.474;13.326;2023-05-10T03:36:45;10.68;;;7.57;;
44358;SDS011;30077;52.474;13.326;2023-05-10T03:41:46;15.18;;;8.18;;
44358;SDS011;30077;52.474;13.326;2023-05-10T03:46:47;11.35;;;7.65;;
44358;SDS011;30077;52.474;13.326;2023-05-10T03:51:47;12.32;;;8.10;;
44358;SDS011;30077;52.474;13.326;2023-05-10T03:56:47;13.85;;;8.43;;
44358;SDS011;30077;52.474;13.326;2023-05-10T04:01:48;12.73;;;7.38;;
44358;SDS011;30077;52.474;13.326;2023-05-10T04:06:49;11.95;;;7.35;;
44358;SDS011;30077;52.474;13.326;2023-05-10T04:11:49;12.07;;;6.53;;
44358;SDS011;30077;52.474;13.326;2023-05-10T04:16:50;11.60;;;7.05;;
44358;SDS011;30077;52.474;13.326;2023-05-10T04:21:50;11.77;;;6.93;;
44358;SDS011;30077;52.474;13.326;2023-05-10T04:26:51;11.50;;;6.78;;
44358;SDS011;30077;52.474;13.326;2023-05-10T04:31:51;9.80;;;6.78;;
44358;SDS011;30077;52.474;13.326;2023-05-10T04:36:52;8.27;;;5.97;;
44358;SDS011;30077;52.474;13.326;2023-05-10T04:41:52;12.82;;;6.28;;
44358;SDS011;30077;52.474;13.326;2023-05-10T04:46:53;17.50;;;7.07;;
44358;SDS011;30077;52.474;13.326;2023-05-10T04:51:53;14.43;;;6.72;;
44358;SDS011;30077;52.474;13.326;2023-05-10T04:56:53;9.57;;;6.53;;
44358;SDS011;30077;52.474;13.326;2023-05-10T05:01:54;9.13;;;6.03;;
44358;SDS011;30077;52.474;13.326;2023-05-10T05:06:55;12.38;;;6.88;;
44358;SDS011;30077;52.474;13.326;2023-05-10T05:11:55;12.45;;;6.72;;
44358;SDS011;30077;52.474;13.326;2023-05-10T05:16:56;11.05;;;6.15;;
44358;SDS011;30077;52.474;13.326;2023-05-10T05:21:56;11.20;;;6.10;;
44358;SDS011;30077;52.474;13.326;2023-05-10T05:26:57;13.75;;;5.65;;
44358;SDS011;30077;52.474;13.326;2023-05-10T05:31:57;11.43;;;5.95;;
44358;SDS011;30077;52.474;13.326;2023-05-10T05:36:57;9.98;;;5.50;;
44358;SDS011;30077;52.474;13.326;2023-05-10T05:41:58;10.32;;;5.20;;
44358;SDS011;30077;52.474;13.326;2023-05-10T05:46:59;7.57;;;5.40;;
44358;SDS011;30077;52.474;13.326;2023-05-10T05:52:02;14.60;;;5.70;;
44358;SDS011;30077;52.474;13.326;2023-05-10T05:57:04;10.57;;;5.60;;
44358;SDS011;30077;52.474;13.326;2023-05-10T06:02:04;14.93;;;5.28;;
44358;SDS011;30077;52.474;13.326;2023-05-10T06:07:05;13.68;;;5.15;;
44358;SDS011;30077;52.474;13.326;2023-05-10T06:12:05;7.93;;;4.55;;
44358;SDS011;30077;52.474;13.326;2023-05-10T06:17:06;11.55;;;5.38;;
44358;SDS011;30077;52.474;13.326;2023-05-10T06:22:06;14.23;;;4.95;;
44358;SDS011;30077;52.474;13.326;2023-05-10T06:27:07;10.15;;;4.70;;
44358;SDS011;30077;52.474;13.326;2023-05-10T06:32:07;5.30;;;4.18;;
44358;SDS011;30077;52.474;13.326;2023-05-10T06:37:08;12.15;;;6.32;;
44358;SDS011;30077;52.474;13.326;2023-05-10T06:42:08;6.47;;;4.28;;
44358;SDS011;30077;52.474;13.326;2023-05-10T06:47:09;7.97;;;3.88;;
44358;SDS011;30077;52.474;13.326;2023-05-10T06:52:09;11.10;;;4.20;;
44358;SDS011;30077;52.474;13.326;2023-05-10T06:57:10;10.27;;;3.92;;
44358;SDS011;30077;52.474;13.326;2023-05-10T07:02:10;11.90;;;4.57;;
44358;SDS011;30077;52.474;13.326;2023-05-10T07:07:11;8.68;;;4.28;;
44358;SDS011;30077;52.474;13.326;2023-05-10T07:12:11;6.95;;;4.30;;
44358;SDS011;30077;52.474;13.326;2023-05-10T07:17:12;6.85;;;4.18;;
44358;SDS011;30077;52.474;13.326;2023-05-10T07:22:12;5.82;;;4.10;;
44358;SDS011;30077;52.474;13.326;2023-05-10T07:27:13;9.02;;;4.00;;
44358;SDS011;30077;52.474;13.326;2023-05-10T07:32:13;6.18;;;4.05;;
44358;SDS011;30077;52.474;13.326;2023-05-10T07:37:15;9.02;;;4.00;;
44358;SDS011;30077;52.474;13.326;2023-05-10T07:42:16;6.63;;;3.70;;
44358;SDS011;30077;52.474;13.326;2023-05-10T07:47:16;6.88;;;3.97;;
44358;SDS011;30077;52.474;13.326;2023-05-10T07:52:17;6.32;;;3.63;;
44358;SDS011;30077;52.474;13.326;2023-05-10T07:57:17;13.95;;;6.45;;
44358;SDS011;30077;52.474;13.326;2023-05-10T08:02:18;8.20;;;3.78;;
44358;SDS011;30077;52.474;13.326;2023-05-10T08:07:18;7.53;;;3.75;;
44358;SDS011;30077;52.474;13.326;2023-05-10T08:12:19;7.60;;;3.58;;
44358;SDS011;30077;52.474;13.326;2023-05-10T08:17:19;7.07;;;4.25;;
44358;SDS011;30077;52.474;13.326;2023-05-10T08:22:20;8.23;;;4.35;;
44358;SDS011;30077;52.474;13.326;2023-05-10T08:27:21;3.67;;;3.20;;
44358;SDS011;30077;52.474;13.326;2023-05-10T08:32:21;8.27;;;4.15;;
44358;SDS011;30077;52.474;13.326;2023-05-10T08:37:25;5.80;;;4.03;;
44358;SDS011;30077;52.474;13.326;2023-05-10T08:42:26;7.43;;;3.70;;
44358;SDS011;30077;52.474;13.326;2023-05-10T08:47:30;5.25;;;3.60;;
44358;SDS011;30077;52.474;13.326;2023-05-10T08:52:30;4.55;;;3.15;;
44358;SDS011;30077;52.474;13.326;2023-05-10T08:57:32;26.00;;;14.00;;
44358;SDS011;30077;52.474;13.326;2023-05-10T09:02:33;6.05;;;3.85;;
44358;SDS011;30077;52.474;13.326;2023-05-10T09:07:36;10.15;;;4.07;;
44358;SDS011;30077;52.474;13.326;2023-05-10T09:12:37;4.90;;;4.40;;
44358;SDS011;30077;52.474;13.326;2023-05-10T09:17:41;7.70;;;4.13;;
44358;SDS011;30077;52.474;13.326;2023-05-10T09:22:44;9.40;;;4.20;;
44358;SDS011;30077;52.474;13.326;2023-05-10T09:27:46;6.22;;;4.47;;
44358;SDS011;30077;52.474;13.326;2023-05-10T09:32:47;4.77;;;3.70;;
44358;SDS011;30077;52.474;13.326;2023-05-10T09:37:51;12.63;;;4.00;;
44358;SDS011;30077;52.474;13.326;2023-05-10T09:43:06;6.82;;;3.75;;
44358;SDS011;30077;52.474;13.326;2023-05-10T09:48:07;5.80;;;4.07;;
44358;SDS011;30077;52.474;13.326;2023-05-10T09:53:08;12.70;;;4.10;;
44358;SDS011;30077;52.474;13.326;2023-05-10T09:58:08;6.40;;;3.78;;
44358;SDS011;30077;52.474;13.326;2023-05-10T10:03:14;11.65;;;4.50;;
44358;SDS011;30077;52.474;13.326;2023-05-10T10:08:19;7.50;;;4.32;;
44358;SDS011;30077;52.474;13.326;2023-05-10T10:13:20;7.38;;;3.83;;
44358;SDS011;30077;52.474;13.326;2023-05-10T10:18:20;5.38;;;3.85;;
44358;SDS011;30077;52.474;13.326;2023-05-10T10:23:27;9.07;;;3.90;;
44358;SDS011;30077;52.474;13.326;2023-05-10T10:28:34;6.60;;;3.50;;
44358;SDS011;30077;52.474;13.326;2023-05-10T10:39:23;7.60;;;5.55;;
44358;SDS011;30077;52.474;13.326;2023-05-10T10:49:36;7.85;;;4.20;;
44358;SDS011;30077;52.474;13.326;2023-05-10T10:54:37;8.32;;;4.47;;
44358;SDS011;30077;52.474;13.326;2023-05-10T10:59:42;7.35;;;3.60;;
44358;SDS011;30077;52.474;13.326;2023-05-10T11:04:43;4.00;;;3.40;;
44358;SDS011;30077;52.474;13.326;2023-05-10T11:14:50;6.90;;;3.53;;
44358;SDS011;30077;52.474;13.326;2023-05-10T11:20:07;8.55;;;3.60;;
44358;SDS011;30077;52.474;13.326;2023-05-10T11:25:09;6.55;;;3.67;;
44358;SDS011;30077;52.474;13.326;2023-05-10T11:30:10;5.88;;;3.30;;
44358;SDS011;30077;52.474;13.326;2023-05-10T11:40:13;5.97;;;3.78;;
44358;SDS011;30077;52.474;13.326;2023-05-10T11:45:14;7.18;;;3.88;;
44358;SDS011;30077;52.474;13.326;2023-05-10T11:50:15;5.47;;;3.10;;
44358;SDS011;30077;52.474;13.326;2023-05-10T11:55:17;7.13;;;3.97;;
44358;SDS011;30077;52.474;13.326;2023-05-10T12:00:17;7.05;;;4.50;;
44358;SDS011;30077;52.474;13.326;2023-05-10T12:05:18;7.63;;;3.28;;
44358;SDS011;30077;52.474;13.326;2023-05-10T12:10:25;6.03;;;3.60;;
44358;SDS011;30077;52.474;13.326;2023-05-10T12:15:26;6.90;;;3.55;;
44358;SDS011;30077;52.474;13.326;2023-05-10T12:20:27;5.05;;;3.50;;
44358;SDS011;30077;52.474;13.326;2023-05-10T12:25:29;5.78;;;3.45;;
44358;SDS011;30077;52.474;13.326;2023-05-10T12:30:32;5.50;;;3.70;;
44358;SDS011;30077;52.474;13.326;2023-05-10T12:40:43;6.07;;;3.42;;
44358;SDS011;30077;52.474;13.326;2023-05-10T12:45:44;7.88;;;3.55;;
44358;SDS011;30077;52.474;13.326;2023-05-10T12:50:48;8.18;;;3.72;;
44358;SDS011;30077;52.474;13.326;2023-05-10T12:55:48;14.95;;;5.72;;
44358;SDS011;30077;52.474;13.326;2023-05-10T13:00:49;12.80;;;5.05;;
44358;SDS011;30077;52.474;13.326;2023-05-10T13:05:51;7.55;;;3.97;;
44358;SDS011;30077;52.474;13.326;2023-05-10T13:10:52;6.75;;;3.65;;
44358;SDS011;30077;52.474;13.326;2023-05-10T13:15:53;4.43;;;3.33;;
44358;SDS011;30077;52.474;13.326;2023-05-10T13:20:53;6.82;;;3.75;;
44358;SDS011;30077;52.474;13.326;2023-05-10T13:25:54;13.45;;;3.75;;
44358;SDS011;30077;52.474;13.326;2023-05-10T13:30:55;7.00;;;4.32;;
44358;SDS011;30077;52.474;13.326;2023-05-10T13:35:55;6.15;;;3.97;;
44358;SDS011;30077;52.474;13.326;2023-05-10T13:40:56;4.15;;;3.75;;
44358;SDS011;30077;52.474;13.326;2023-05-10T13:45:56;10.35;;;3.45;;
44358;SDS011;30077;52.474;13.326;2023-05-10T13:50:57;5.70;;;3.40;;
44358;SDS011;30077;52.474;13.326;2023-05-10T13:55:57;4.20;;;3.40;;
44358;SDS011;30077;52.474;13.326;2023-05-10T14:00:58;6.22;;;3.70;;
44358;SDS011;30077;52.474;13.326;2023-05-10T14:05:58;4.18;;;3.50;;
44358;SDS011;30077;52.474;13.326;2023-05-10T14:10:59;3.47;;;3.17;;
44358;SDS011;30077;52.474;13.326;2023-05-10T14:15:59;4.63;;;4.10;;
44358;SDS011;30077;52.474;13.326;2023-05-10T14:21:01;4.10;;;3.35;;
44358;SDS011;30077;52.474;13.326;2023-05-10T14:26:02;5.40;;;3.10;;
44358;SDS011;30077;52.474;13.326;2023-05-10T14:31:02;9.05;;;3.38;;
44358;SDS011;30077;52.474;13.326;2023-05-10T14:36:03;4.50;;;3.38;;
44358;SDS011;30077;52.474;13.326;2023-05-10T14:41:04;4.75;;;3.38;;
44358;SDS011;30077;52.474;13.326;2023-05-10T14:46:04;6.05;;;3.15;;
44358;SDS011;30077;52.474;13.326;2023-05-10T14:51:05;6.88;;;3.67;;
44358;SDS011;30077;52.474;13.326;2023-05-10T14:56:06;4.83;;;3.50;;
44358;SDS011;30077;52.474;13.326;2023-05-10T15:01:07;4.55;;;3.50;;
44358;SDS011;30077;52.474;13.326;2023-05-10T15:06:08;7.25;;;3.25;;
44358;SDS011;30077;52.474;13.326;2023-05-10T15:11:08;4.50;;;3.20;;
44358;SDS011;30077;52.474;13.326;2023-05-10T15:16:09;6.32;;;3.42;;
44358;SDS011;30077;52.474;13.326;2023-05-10T15:21:11;6.95;;;3.03;;
44358;SDS011;30077;52.474;13.326;2023-05-10T15:26:11;5.85;;;3.33;;
44358;SDS011;30077;52.474;13.326;2023-05-10T15:31:12;4.65;;;3.60;;
44358;SDS011;30077;52.474;13.326;2023-05-10T15:36:12;5.15;;;3.63;;
44358;SDS011;30077;52.474;13.326;2023-05-10T15:41:13;4.72;;;3.47;;
44358;SDS011;30077;52.474;13.326;2023-05-10T15:46:13;6.07;;;3.80;;
44358;SDS011;30077;52.474;13.326;2023-05-10T15:51:14;4.40;;;3.42;;
44358;SDS011;30077;52.474;13.326;2023-05-10T15:56:15;6.32;;;3.50;;
44358;SDS011;30077;52.474;13.326;2023-05-10T16:01:15;4.78;;;3.00;;
44358;SDS011;30077;52.474;13.326;2023-05-10T16:06:16;4.38;;;3.47;;
44358;SDS011;30077;52.474;13.326;2023-05-10T16:11:16;7.43;;;3.58;;
44358;SDS011;30077;52.474;13.326;2023-05-10T16:16:17;6.38;;;4.22;;
44358;SDS011;30077;52.474;13.326;2023-05-10T16:21:17;9.93;;;4.68;;
44358;SDS011;30077;52.474;13.326;2023-05-10T16:26:18;6.22;;;4.70;;
44358;SDS011;30077;52.474;13.326;2023-05-10T16:31:18;12.43;;;5.95;;
44358;SDS011;30077;52.474;13.326;2023-05-10T16:36:19;12.30;;;5.63;;
44358;SDS011;30077;52.474;13.326;2023-05-10T16:41:20;7.82;;;6.10;;
44358;SDS011;30077;52.474;13.326;2023-05-10T16:46:20;7.28;;;6.57;;
44358;SDS011;30077;52.474;13.326;2023-05-10T16:51:21;7.88;;;6.47;;
44358;SDS011;30077;52.474;13.326;2023-05-10T16:56:21;9.60;;;7.22;;
44358;SDS011;30077;52.474;13.326;2023-05-10T17:01:22;7.03;;;5.82;;
44358;SDS011;30077;52.474;13.326;2023-05-10T17:06:22;10.43;;;7.65;;
44358;SDS011;30077;52.474;13.326;2023-05-10T17:11:23;8.68;;;7.07;;
44358;SDS011;30077;52.474;13.326;2023-05-10T17:16:23;13.02;;;8.95;;
44358;SDS011;30077;52.474;13.326;2023-05-10T17:21:24;12.85;;;8.00;;
44358;SDS011;30077;52.474;13.326;2023-05-10T17:26:25;7.90;;;6.55;;
44358;SDS011;30077;52.474;13.326;2023-05-10T17:31:26;10.30;;;7.72;;
44358;SDS011;30077;52.474;13.326;2023-05-10T17:36:27;8.27;;;7.00;;
44358;SDS011;30077;52.474;13.326;2023-05-10T17:41:27;9.35;;;7.32;;
44358;SDS011;30077;52.474;13.326;2023-05-10T17:46:28;10.90;;;7.35;;
44358;SDS011;30077;52.474;13.326;2023-05-10T17:51:28;10.02;;;6.80;;
44358;SDS011;30077;52.474;13.326;2023-05-10T17:56:29;11.88;;;7.50;;
44358;SDS011;30077;52.474;13.326;2023-05-10T18:01:29;15.82;;;7.03;;
44358;SDS011;30077;52.474;13.326;2023-05-10T18:06:30;10.15;;;7.38;;
44358;SDS011;30077;52.474;13.326;2023-05-10T18:11:35;10.65;;;7.55;;
44358;SDS011;30077;52.474;13.326;2023-05-10T18:16:36;8.50;;;6.97;;
44358;SDS011;30077;52.474;13.326;2023-05-10T18:21:37;10.77;;;6.82;;
44358;SDS011;30077;52.474;13.326;2023-05-10T18:26:38;8.38;;;7.50;;
44358;SDS011;30077;52.474;13.326;2023-05-10T18:31:39;9.48;;;7.53;;
44358;SDS011;30077;52.474;13.326;2023-05-10T18:36:39;8.10;;;6.82;;
44358;SDS011;30077;52.474;13.326;2023-05-10T18:41:43;10.48;;;7.10;;
44358;SDS011;30077;52.474;13.326;2023-05-10T18:46:44;11.37;;;8.50;;
44358;SDS011;30077;52.474;13.326;2023-05-10T18:51:45;12.18;;;8.77;;
44358;SDS011;30077;52.474;13.326;2023-05-10T18:56:46;57.88;;;33.25;;
44358;SDS011;30077;52.474;13.326;2023-05-10T19:01:47;29.50;;;18.30;;
44358;SDS011;30077;52.474;13.326;2023-05-10T19:06:48;20.10;;;13.13;;
44358;SDS011;30077;52.474;13.326;2023-05-10T19:11:49;20.17;;;12.88;;
44358;SDS011;30077;52.474;13.326;2023-05-10T19:16:50;11.27;;;8.67;;
44358;SDS011;30077;52.474;13.326;2023-05-10T19:21:50;25.73;;;15.63;;
44358;SDS011;30077;52.474;13.326;2023-05-10T19:26:51;18.15;;;10.43;;
44358;SDS011;30077;52.474;13.326;2023-05-10T19:31:52;18.33;;;13.23;;
44358;SDS011;30077;52.474;13.326;2023-05-10T19:36:54;13.50;;;10.93;;
44358;SDS011;30077;52.474;13.326;2023-05-10T19:41:56;11.27;;;9.73;;
44358;SDS011;30077;52.474;13.326;2023-05-10T19:46:56;12.05;;;9.32;;
44358;SDS011;30077;52.474;13.326;2023-05-10T19:51:57;14.77;;;10.07;;
44358;SDS011;30077;52.474;13.326;2023-05-10T19:56:58;16.27;;;10.70;;
44358;SDS011;30077;52.474;13.326;2023-05-10T20:01:58;12.25;;;9.73;;
44358;SDS011;30077;52.474;13.326;2023-05-10T20:06:59;12.27;;;9.43;;
44358;SDS011;30077;52.474;13.326;2023-05-10T20:11:59;14.35;;;10.77;;
44358;SDS011;30077;52.474;13.326;2023-05-10T20:17:00;15.35;;;10.38;;
44358;SDS011;30077;52.474;13.326;2023-05-10T20:22:01;15.32;;;10.75;;
44358;SDS011;30077;52.474;13.326;2023-05-10T20:27:04;29.15;;;19.25;;
44358;SDS011;30077;52.474;13.326;2023-05-10T20:32:04;20.45;;;14.43;;
44358;SDS011;30077;52.474;13.326;2023-05-10T20:37:05;15.95;;;11.10;;
44358;SDS011;30077;52.474;13.326;2023-05-10T20:42:06;10.52;;;9.48;;
44358;SDS011;30077;52.474;13.326;2023-05-10T20:47:06;11.80;;;10.18;;
44358;SDS011;30077;52.474;13.326;2023-05-10T20:52:07;13.77;;;10.10;;
44358;SDS011;30077;52.474;13.326;2023-05-10T20:57:08;12.35;;;10.65;;
44358;SDS011;30077;52.474;13.326;2023-05-10T21:02:11;11.88;;;10.10;;
44358;SDS011;30077;52.474;13.326;2023-05-10T21:07:12;10.35;;;9.20;;
44358;SDS011;30077;52.474;13.326;2023-05-10T21:12:12;16.80;;;10.07;;
44358;SDS011;30077;52.474;13.326;2023-05-10T21:17:13;12.77;;;9.70;;
44358;SDS011;30077;52.474;13.326;2023-05-10T21:22:13;14.27;;;9.13;;
44358;SDS011;30077;52.474;13.326;2023-05-10T21:27:14;13.48;;;9.05;;
44358;SDS011;30077;52.474;13.326;2023-05-10T21:32:15;11.00;;;8.93;;
44358;SDS011;30077;52.474;13.326;2023-05-10T21:37:15;11.23;;;9.27;;
44358;SDS011;30077;52.474;13.326;2023-05-10T21:42:18;12.15;;;9.00;;
44358;SDS011;30077;52.474;13.326;2023-05-10T21:47:19;10.35;;;8.32;;
44358;SDS011;30077;52.474;13.326;2023-05-10T21:52:19;10.68;;;9.02;;
44358;SDS011;30077;52.474;13.326;2023-05-10T21:57:20;11.02;;;8.50;;
44358;SDS011;30077;52.474;13.326;2023-05-10T22:02:21;17.58;;;11.63;;
44358;SDS011;30077;52.474;13.326;2023-05-10T22:07:21;43.63;;;26.25;;
44358;SDS011;30077;52.474;13.326;2023-05-10T22:12:22;12.30;;;8.77;;
44358;SDS011;30077;52.474;13.326;2023-05-10T22:17:22;10.38;;;7.20;;
44358;SDS011;30077;52.474;13.326;2023-05-10T22:22:23;9.15;;;7.80;;
44358;SDS011;30077;52.474;13.326;2023-05-10T22:27:23;12.25;;;8.35;;
44358;SDS011;30077;52.474;13.326;2023-05-10T22:32:24;10.80;;;8.30;;
44358;SDS011;30077;52.474;13.326;2023-05-10T22:37:24;7.65;;;6.85;;
44358;SDS011;30077;52.474;13.326;2023-05-10T22:42:25;8.63;;;7.65;;
44358;SDS011;30077;52.474;13.326;2023-05-10T22:47:26;8.63;;;7.63;;
44358;SDS011;30077;52.474;13.326;2023-05-10T22:52:26;9.48;;;7.85;;
44358;SDS011;30077;52.474;13.326;2023-05-10T22:57:27;12.60;;;8.95;;
44358;SDS011;30077;52.474;13.326;2023-05-10T23:02:27;9.02;;;7.82;;
44358;SDS011;30077;52.474;13.326;2023-05-10T23:07:28;10.88;;;8.63;;
44358;SDS011;30077;52.474;13.326;2023-05-10T23:12:28;11.63;;;8.32;;
44358;SDS011;30077;52.474;13.326;2023-05-10T23:17:30;10.73;;;9.13;;
44358;SDS011;30077;52.474;13.326;2023-05-10T23:22:30;11.48;;;8.43;;
44358;SDS011;30077;52.474;13.326;2023-05-10T23:27:31;13.15;;;8.02;;
44358;SDS011;30077;52.474;13.326;2023-05-10T23:32:31;10.40;;;8.07;;
44358;SDS011;30077;52.474;13.326;2023-05-10T23:37:32;11.55;;;8.98;;
44358;SDS011;30077;52.474;13.326;2023-05-10T23:42:32;10.88;;;8.90;;
44358;SDS011;30077;52.474;13.326;2023-05-10T23:47:33;11.88;;;8.98;;
44358;SDS011;30077;52.474;13.326;2023-05-10T23:52:33;12.90;;;9.13;;
44358;SDS011;30077;52.474;13.326;2023-05-10T23:57:34;11.13;;;9.05;;
